^^
Saratoga-Weather Station Historical Data
Daily Summary for July 4, 2020 Units:  English    Metric   Both
Daily Weekly Monthly Yearly Custom
  High: Low: Average:
Temperature: 61.9 °F 33.1 °F 46.6 °F
Dew Point: 38.1 °F 30.2 °F 34.7 °F
Humidity: 92% 37% 66%
Wind Speed: 6.9mph 0mph 1.2mph
Wind Gust: 14mph - -
Wind- - ESE
Pressure: 30.2 in 30.1 in -
Precipitation: 0 in    
Historical Graphs
 
 
Tabular Data for July 4, 2020
Time Temperature Dew Point Pressure Wind Wind Speed Wind Gust Humidity Rainfall Rate (Hourly) solar
00:02 40.3 °F 33.6 °F 30.1 in Calm     77% 0 in 0 W/m2
00:07 40.1 °F 33.8 °F 30.1 in Calm     78% 0 in 0 W/m2
00:12 39.9 °F 34 °F 30.1 in Calm     79% 0 in 0 W/m2
00:17 39.7 °F 33.8 °F 30.1 in Calm     79% 0 in 0 W/m2
00:22 39.6 °F 33.6 °F 30.1 in Calm     79% 0 in 0 W/m2
00:27 39.4 °F 33.8 °F 30.1 in Calm     80% 0 in 0 W/m2
00:32 39.2 °F 33.6 °F 30.1 in Calm     80% 0 in 0 W/m2
00:37 39 °F 33.4 °F 30.1 in Calm     80% 0 in 0 W/m2
00:42 38.8 °F 33.3 °F 30.1 in Calm     80% 0 in 0 W/m2
00:47 38.8 °F 33.4 °F 30.1 in Calm     81% 0 in 0 W/m2
00:52 38.7 °F 33.3 °F 30.1 in Calm     81% 0 in 0 W/m2
00:57 38.5 °F 33.1 °F 30.1 in Calm     81% 0 in 0 W/m2
01:02 38.3 °F 32.9 °F 30.1 in Calm     81% 0 in 0 W/m2
01:07 38.1 °F 33.1 °F 30.1 in Calm     82% 0 in 0 W/m2
01:12 37.8 °F 32.7 °F 30.1 in Calm     82% 0 in 0 W/m2
01:17 37.8 °F 32.7 °F 30.1 in Calm     82% 0 in 0 W/m2
01:23 37.6 °F 32.9 °F 30.1 in Calm     83% 0 in 0 W/m2
01:28 37.2 °F 32.9 °F 30.1 in Calm     84% 0 in 0 W/m2
01:33 37.2 °F 32.9 °F 30.1 in Calm   1 mph 84% 0 in 0 W/m2
01:38 37.2 °F 32.9 °F 30.2 in Calm     84% 0 in 0 W/m2
01:43 37.2 °F 32.9 °F 30.2 in Calm     84% 0 in 0 W/m2
01:48 37 °F 32.4 °F 30.2 in Calm     83% 0 in 0 W/m2
01:53 36.9 °F 32.2 °F 30.2 in Calm     83% 0 in 0 W/m2
01:58 36.7 °F 32.4 °F 30.2 in Calm     84% 0 in 0 W/m2
02:03 36.7 °F 32.4 °F 30.2 in Calm   1 mph 84% 0 in 0 W/m2
02:08 36.5 °F 32.4 °F 30.2 in Calm     85% 0 in 0 W/m2
02:13 36.1 °F 32 °F 30.2 in Calm     85% 0 in 0 W/m2
02:18 36.1 °F 32 °F 30.2 in Calm     85% 0 in 0 W/m2
02:23 36 °F 31.8 °F 30.2 in Calm     85% 0 in 0 W/m2
02:28 35.8 °F 31.6 °F 30.2 in Calm     85% 0 in 0 W/m2
02:33 35.6 °F 31.8 °F 30.2 in Calm     86% 0 in 0 W/m2
02:38 35.4 °F 31.6 °F 30.2 in Calm     86% 0 in 0 W/m2
02:43 35.2 °F 31.5 °F 30.2 in Calm     86% 0 in 0 W/m2
02:48 35.1 °F 31.3 °F 30.2 in Calm     86% 0 in 0 W/m2
02:53 35.1 °F 31.6 °F 30.2 in Calm     87% 0 in 0 W/m2
02:58 34.9 °F 31.5 °F 30.2 in Calm     87% 0 in 0 W/m2
03:03 34.9 °F 31.5 °F 30.2 in Calm     87% 0 in 0 W/m2
03:08 34.9 °F 31.5 °F 30.2 in Calm     87% 0 in 0 W/m2
03:13 34.7 °F 31.3 °F 30.2 in Calm     87% 0 in 0 W/m2
03:18 34.7 °F 31.5 °F 30.2 in Calm   1 mph 88% 0 in 0 W/m2
03:23 34.7 °F 31.5 °F 30.2 in Calm     88% 0 in 0 W/m2
03:28 34.5 °F 31.3 °F 30.2 in Calm   1 mph 88% 0 in 0 W/m2
03:33 34.5 °F 31.3 °F 30.2 in Calm     88% 0 in 0 W/m2
03:38 34.3 °F 31.1 °F 30.2 in Calm   1 mph 88% 0 in 0 W/m2
03:43 34.3 °F 31.1 °F 30.2 in Calm     88% 0 in 0 W/m2
03:48 34.3 °F 31.1 °F 30.2 in Calm   1 mph 88% 0 in 0 W/m2
03:53 34.3 °F 31.5 °F 30.2 in Calm   1 mph 89% 0 in 0 W/m2
03:58 34.3 °F 31.5 °F 30.2 in Calm   1 mph 89% 0 in 0 W/m2
04:03 34.5 °F 31.6 °F 30.2 in Calm   1 mph 89% 0 in 0 W/m2
04:08 34.7 °F 31.8 °F 30.2 in Calm     89% 0 in 0 W/m2
04:13 35.1 °F 32.4 °F 30.2 in Calm   1 mph 90% 0 in 0 W/m2
04:18 35.2 °F 32.5 °F 30.2 in Calm     90% 0 in 0 W/m2
04:23 35.4 °F 32.7 °F 30.2 in South 0.9 mph 1 mph 90% 0 in 0 W/m2
04:28 35.6 °F 32.7 °F 30.2 in Calm     89% 0 in 0 W/m2
04:33 35.8 °F 32.9 °F 30.2 in NW 0.9 mph 2 mph 89% 0 in 0 W/m2
04:38 35.8 °F 32.9 °F 30.2 in Calm     89% 0 in 0 W/m2
04:43 36 °F 33.1 °F 30.2 in NW 0.9 mph 1 mph 89% 0 in 0 W/m2
04:48 36 °F 33.1 °F 30.2 in Calm     89% 0 in 0 W/m2
04:53 36 °F 32.7 °F 30.2 in NW 0.9 mph 1 mph 88% 0 in 0 W/m2
04:58 35.8 °F 32.5 °F 30.2 in Calm     88% 0 in 0 W/m2
05:03 35.8 °F 32.5 °F 30.2 in Calm     88% 0 in 0 W/m2
05:08 35.8 °F 32.5 °F 30.2 in Calm     88% 0 in 0 W/m2
05:13 35.6 °F 32.4 °F 30.2 in Calm     88% 0 in 0 W/m2
05:18 35.4 °F 32.2 °F 30.2 in Calm     88% 0 in 0 W/m2
05:23 35.4 °F 32.2 °F 30.2 in Calm   1 mph 88% 0 in 0 W/m2
05:29 35.2 °F 32 °F 30.2 in Calm     88% 0 in 0 W/m2
05:34 35.1 °F 31.8 °F 30.2 in Calm     88% 0 in 0 W/m2
05:39 35.1 °F 31.8 °F 30.2 in Calm     88% 0 in 0 W/m2
05:44 34.9 °F 31.6 °F 30.2 in Calm     88% 0 in 0 W/m2
05:49 34.7 °F 31.8 °F 30.2 in Calm     89% 0 in 0 W/m2
05:54 34.5 °F 31.6 °F 30.2 in Calm     89% 0 in 0 W/m2
05:59 34.5 °F 31.6 °F 30.2 in Calm     89% 0 in 0 W/m2
06:04 34.3 °F 31.5 °F 30.2 in Calm     89% 0 in 0 W/m2
06:09 34.2 °F 31.3 °F 30.2 in Calm     89% 0 in 0 W/m2
06:14 34.2 °F 31.3 °F 30.2 in Calm     89% 0 in 0 W/m2
06:19 34 °F 31.1 °F 30.2 in Calm     89% 0 in 0 W/m2
06:24 34 °F 31.1 °F 30.2 in Calm     89% 0 in 0 W/m2
06:29 33.8 °F 30.9 °F 30.2 in Calm     89% 0 in 0 W/m2
06:34 33.6 °F 30.7 °F 30.2 in Calm     89% 0 in 0 W/m2
06:39 33.4 °F 30.6 °F 30.2 in Calm     89% 0 in 0 W/m2
06:44 33.4 °F 30.6 °F 30.2 in Calm     89% 0 in 0 W/m2
06:49 33.3 °F 30.4 °F 30.2 in Calm     89% 0 in 0 W/m2
06:54 33.3 °F 30.6 °F 30.2 in Calm     90% 0 in 0 W/m2
06:59 33.3 °F 30.6 °F 30.2 in Calm     90% 0 in 0 W/m2
07:04 33.1 °F 30.2 °F 30.2 in Calm     89% 0 in 5 W/m2
07:09 33.1 °F 30.4 °F 30.2 in Calm     90% 0 in 7 W/m2
07:14 33.1 °F 30.4 °F 30.2 in Calm     90% 0 in 11 W/m2
07:20 33.1 °F 30.7 °F 30.2 in Calm     91% 0 in 12 W/m2
07:25 33.3 °F 30.6 °F 30.2 in Calm     90% 0 in 16 W/m2
07:30 33.3 °F 30.9 °F 30.2 in Calm     91% 0 in 19 W/m2
07:35 33.4 °F 31.1 °F 30.2 in Calm     91% 0 in 21 W/m2
07:40 33.6 °F 31.3 °F 30.2 in Calm     91% 0 in 23 W/m2
07:45 34 °F 31.6 °F 30.2 in Calm     91% 0 in 26 W/m2
07:50 34.2 °F 31.8 °F 30.2 in Calm     91% 0 in 32 W/m2
07:55 34.3 °F 32.2 °F 30.2 in Calm     92% 0 in 33 W/m2
08:00 34.5 °F 32.2 °F 30.2 in Calm     91% 0 in 40 W/m2
08:05 34.9 °F 32.7 °F 30.2 in Calm     92% 0 in 42 W/m2
08:10 35.1 °F 32.7 °F 30.2 in Calm     91% 0 in 46 W/m2
08:15 35.2 °F 32.9 °F 30.2 in Calm     91% 0 in 134 W/m2
08:20 35.4 °F 33.1 °F 30.2 in Calm     91% 0 in 149 W/m2
08:25 35.8 °F 33.4 °F 30.2 in Calm     91% 0 in 163 W/m2
08:30 36.3 °F 34 °F 30.2 in NE 2 mph 2 mph 91% 0 in 174 W/m2
08:35 37 °F 34.2 °F 30.2 in NE 0.9 mph 1 mph 89% 0 in 183 W/m2
08:40 37.6 °F 34.3 °F 30.2 in Calm   2 mph 88% 0 in 188 W/m2
08:45 37.9 °F 34.3 °F 30.2 in NE 0.9 mph 1 mph 87% 0 in 200 W/m2
08:50 38.5 °F 34.7 °F 30.2 in East 2 mph 2 mph 86% 0 in 197 W/m2
08:55 38.8 °F 34.3 °F 30.2 in East 2 mph 2 mph 84% 0 in 232 W/m2
09:00 39.4 °F 34.9 °F 30.2 in East 2 mph 2 mph 84% 0 in 246 W/m2
09:05 39.7 °F 34.7 °F 30.2 in East 2 mph 2 mph 82% 0 in 265 W/m2
09:10 40.3 °F 34.9 °F 30.2 in ENE 0.9 mph 3 mph 81% 0 in 283 W/m2
09:15 40.6 °F 34.9 °F 30.2 in East 2 mph 3 mph 80% 0 in 306 W/m2
09:20 41.2 °F 35.2 °F 30.2 in Calm   1 mph 79% 0 in 315 W/m2
09:25 41.4 °F 35.1 °F 30.2 in Calm   1 mph 78% 0 in 332 W/m2
09:30 42.1 °F 35.1 °F 30.2 in NNE 0.9 mph 2 mph 76% 0 in 294 W/m2
09:35 42.4 °F 35.1 °F 30.2 in East 2 mph 3 mph 75% 0 in 113 W/m2
09:40 43.3 °F 35.6 °F 30.2 in East 2.9 mph 4 mph 74% 0 in 295 W/m2
09:45 44.2 °F 35.8 °F 30.2 in East 4.9 mph 5 mph 72% 0 in 381 W/m2
09:50 44.8 °F 35.2 °F 30.2 in East 4 mph 5 mph 69% 0 in 394 W/m2
09:55 45.3 °F 35.1 °F 30.2 in NE 2.9 mph 7 mph 67% 0 in 529 W/m2
10:00 45.7 °F 35.1 °F 30.2 in East 2 mph 3 mph 66% 0 in 559 W/m2
10:05 46.4 °F 35.2 °F 30.2 in NNE 2.9 mph 4 mph 65% 0 in 527 W/m2
10:10 46.8 °F 35.6 °F 30.2 in ENE 2.9 mph 4 mph 65% 0 in 573 W/m2
10:15 46.9 °F 35.4 °F 30.2 in Calm   3 mph 64% 0 in 545 W/m2
10:20 47.5 °F 35.6 °F 30.2 in Calm   4 mph 63% 0 in 547 W/m2
10:25 48 °F 35.6 °F 30.2 in ESE 2.9 mph 4 mph 62% 0 in 533 W/m2
10:30 48.4 °F 35.6 °F 30.2 in ESE 2.9 mph 5 mph 61% 0 in 281 W/m2
10:35 48.4 °F 35.6 °F 30.2 in ESE 0.9 mph 7 mph 61% 0 in 211 W/m2
10:40 48.6 °F 35.8 °F 30.2 in ENE 0.9 mph 3 mph 61% 0 in 543 W/m2
10:45 48.7 °F 36 °F 30.2 in ENE 4 mph 4 mph 61% 0 in 522 W/m2
10:50 48.9 °F 35.6 °F 30.2 in NE 0.9 mph 3 mph 60% 0 in 520 W/m2
10:55 49.5 °F 36.5 °F 30.2 in ENE 2 mph 4 mph 61% 0 in 538 W/m2
11:00 49.6 °F 36.3 °F 30.2 in ENE 2 mph 4 mph 60% 0 in 548 W/m2
11:05 50.2 °F 36.9 °F 30.2 in SE 2.9 mph 3 mph 60% 0 in 545 W/m2
11:10 50.7 °F 36.9 °F 30.2 in East 2 mph 3 mph 59% 0 in 545 W/m2
11:15 51.3 °F 37 °F 30.2 in East 2 mph 4 mph 58% 0 in 554 W/m2
11:20 51.4 °F 37.2 °F 30.2 in East 2.9 mph 5 mph 58% 0 in 555 W/m2
11:25 51.6 °F 36.9 °F 30.2 in East 2.9 mph 3 mph 57% 0 in 564 W/m2
11:30 52 °F 36.9 °F 30.2 in ENE 2 mph 4 mph 56% 0 in 573 W/m2
11:36 52.5 °F 37.2 °F 30.2 in ENE 4.9 mph 6 mph 56% 0 in 580 W/m2
11:41 52.3 °F 36.1 °F 30.2 in Calm   4 mph 54% 0 in 592 W/m2
11:46 52.5 °F 36.9 °F 30.2 in ESE 0.9 mph 4 mph 55% 0 in 596 W/m2
11:51 52.9 °F 36.7 °F 30.2 in ESE 6.9 mph 9 mph 54% 0 in 605 W/m2
11:56 53.4 °F 36.7 °F 30.2 in ESE 6.9 mph 7 mph 53% 0 in 612 W/m2
12:01 53.6 °F 36.3 °F 30.2 in NE 2.9 mph 9 mph 52% 0 in 617 W/m2
12:06 53.8 °F 36.5 °F 30.2 in ESE 2.9 mph 7 mph 52% 0 in 626 W/m2
12:11 53.8 °F 37 °F 30.2 in East 4 mph 5 mph 53% 0 in 631 W/m2
12:16 53.4 °F 36.3 °F 30.2 in North 0.9 mph 4 mph 52% 0 in 638 W/m2
12:21 53.8 °F 37 °F 30.2 in SE 2 mph 4 mph 53% 0 in 640 W/m2
12:26 54.1 °F 36.9 °F 30.2 in East 2.9 mph 4 mph 52% 0 in 645 W/m2
12:31 54.9 °F 37 °F 30.2 in ENE 0.9 mph 4 mph 51% 0 in 652 W/m2
12:36 55.2 °F 36.9 °F 30.2 in East 0.9 mph 2 mph 50% 0 in 656 W/m2
12:41 55.4 °F 37 °F 30.2 in East 4 mph 8 mph 50% 0 in 659 W/m2
12:46 55 °F 36.7 °F 30.2 in East 2 mph 4 mph 50% 0 in 661 W/m2
12:51 55 °F 36.7 °F 30.2 in SE 0.9 mph 11 mph 50% 0 in 664 W/m2
12:56 55.2 °F 36.9 °F 30.2 in ESE 2 mph 3 mph 50% 0 in 673 W/m2
13:01 55.8 °F 37.4 °F 30.2 in East 2 mph 11 mph 50% 0 in 666 W/m2
13:06 56.1 °F 37.2 °F 30.2 in NNW 2.9 mph 3 mph 49% 0 in 673 W/m2
13:11 55.8 °F 35.8 °F 30.2 in NNE 2 mph 8 mph 47% 0 in 666 W/m2
13:16 55.6 °F 36.1 °F 30.2 in Calm   5 mph 48% 0 in 675 W/m2
13:21 55.9 °F 37.6 °F 30.2 in East 6.9 mph 8 mph 50% 0 in 677 W/m2
13:26 55.9 °F 36.5 °F 30.2 in NNE 0.9 mph 8 mph 48% 0 in 680 W/m2
13:32 55.9 °F 36 °F 30.2 in East 4 mph 5 mph 47% 0 in 670 W/m2
13:37 55.9 °F 36.5 °F 30.2 in West 2.9 mph 6 mph 48% 0 in 673 W/m2
13:42 55.9 °F 36.5 °F 30.2 in East 2 mph 4 mph 48% 0 in 675 W/m2
13:47 55.9 °F 37 °F 30.2 in ENE 2 mph 7 mph 49% 0 in 615 W/m2
13:52 56.5 °F 38.1 °F 30.2 in NNW 2 mph 2 mph 50% 0 in 677 W/m2
13:57 56.7 °F 37.2 °F 30.2 in ENE 0.9 mph 6 mph 48% 0 in 679 W/m2
14:02 56.8 °F 36.9 °F 30.2 in NE 4.9 mph 12 mph 47% 0 in 675 W/m2
14:07 56.3 °F 36.3 °F 30.2 in North 2 mph 3 mph 47% 0 in 673 W/m2
14:12 56.1 °F 36.7 °F 30.2 in West 0.9 mph 2 mph 48% 0 in 670 W/m2
14:17 56.5 °F 37 °F 30.2 in Calm   3 mph 48% 0 in 666 W/m2
14:22 56.7 °F 36.7 °F 30.2 in NNW 0.9 mph 4 mph 47% 0 in 666 W/m2
14:27 56.5 °F 37 °F 30.2 in NW 2 mph 3 mph 48% 0 in 663 W/m2
14:32 56.5 °F 36.5 °F 30.2 in ESE 2 mph 10 mph 47% 0 in 654 W/m2
14:37 56.5 °F 37 °F 30.2 in NNW 2 mph 3 mph 48% 0 in 659 W/m2
14:42 56.7 °F 37.8 °F 30.2 in WNW 0.9 mph 2 mph 49% 0 in 650 W/m2
14:47 57 °F 37.6 °F 30.2 in NE 4 mph 14 mph 48% 0 in 636 W/m2
14:52 57.2 °F 37.2 °F 30.2 in East 2 mph 6 mph 47% 0 in 642 W/m2
14:57 57.6 °F 37.4 °F 30.2 in East 4 mph 14 mph 47% 0 in 631 W/m2
15:02 57.7 °F 37 °F 30.2 in NNW 2.9 mph 4 mph 46% 0 in 628 W/m2
15:08 58.1 °F 37.9 °F 30.2 in East 2.9 mph 9 mph 47% 0 in 626 W/m2
15:13 58.1 °F 37.4 °F 30.2 in East 4 mph 6 mph 46% 0 in 613 W/m2
15:18 58.5 °F 37.8 °F 30.2 in East 2.9 mph 3 mph 46% 0 in 592 W/m2
15:23 58.5 °F 36.7 °F 30.2 in NNE 2 mph 5 mph 44% 0 in 601 W/m2
15:28 58.5 °F 37.8 °F 30.2 in ENE 0.9 mph 5 mph 46% 0 in 599 W/m2
15:33 58.6 °F 37.4 °F 30.2 in ENE 2 mph 3 mph 45% 0 in 578 W/m2
15:38 59 °F 37.8 °F 30.2 in ENE 2 mph 9 mph 45% 0 in 568 W/m2
15:43 59.2 °F 37.9 °F 30.2 in East 2.9 mph 7 mph 45% 0 in 575 W/m2
15:48 59.4 °F 37.4 °F 30.2 in ENE 4 mph 4 mph 44% 0 in 577 W/m2
15:53 59.5 °F 37 °F 30.2 in ESE 4 mph 6 mph 43% 0 in 566 W/m2
15:58 59.7 °F 37.2 °F 30.2 in East 4 mph 5 mph 43% 0 in 557 W/m2
16:03 59.7 °F 36.5 °F 30.2 in ENE 2.9 mph 3 mph 42% 0 in 550 W/m2
16:08 60.1 °F 36.3 °F 30.2 in East 2.9 mph 8 mph 41% 0 in 538 W/m2
16:13 60.1 °F 36.9 °F 30.2 in ESE 4 mph 4 mph 42% 0 in 526 W/m2
16:18 60.3 °F 37 °F 30.2 in East 2.9 mph 9 mph 42% 0 in 517 W/m2
16:23 60.3 °F 35.8 °F 30.2 in ENE 2 mph 3 mph 40% 0 in 506 W/m2
16:28 60.3 °F 36.5 °F 30.2 in ESE 2 mph 3 mph 41% 0 in 496 W/m2
16:33 60.4 °F 36.7 °F 30.2 in East 6 mph 10 mph 41% 0 in 487 W/m2
16:38 60.4 °F 36.7 °F 30.2 in South 2.9 mph 4 mph 41% 0 in 473 W/m2
16:43 60.4 °F 37.8 °F 30.2 in ESE 4 mph 10 mph 43% 0 in 468 W/m2
16:48 60.6 °F 36.9 °F 30.2 in SSE 2.9 mph 4 mph 41% 0 in 459 W/m2
16:53 60.8 °F 36.9 °F 30.2 in ESE 4 mph 4 mph 41% 0 in 420 W/m2
16:58 60.6 °F 36.1 °F 30.2 in ESE 0.9 mph 2 mph 40% 0 in 418 W/m2
17:03 60.6 °F 36.9 °F 30.2 in ENE 2.9 mph 10 mph 41% 0 in 420 W/m2
17:08 61 °F 37 °F 30.2 in NW 0.9 mph 3 mph 41% 0 in 411 W/m2
17:13 61.2 °F 36.7 °F 30.2 in East 4 mph 10 mph 40% 0 in 401 W/m2
17:18 61.3 °F 36.1 °F 30.2 in SE 0.9 mph 4 mph 39% 0 in 387 W/m2
17:24 61.3 °F 35.6 °F 30.2 in ENE 4 mph 6 mph 38% 0 in 371 W/m2
17:29 61.2 °F 36.7 °F 30.2 in NNE 0.9 mph 3 mph 40% 0 in 362 W/m2
17:34 61.5 °F 36.3 °F 30.2 in ENE 2.9 mph 4 mph 39% 0 in 350 W/m2
17:39 61.9 °F 36 °F 30.2 in ENE 2 mph 4 mph 38% 0 in 336 W/m2
17:44 61.9 °F 35.2 °F 30.2 in SSE 0.9 mph 6 mph 37% 0 in 323 W/m2
17:49 61.9 °F 35.2 °F 30.2 in ENE 4 mph 4 mph 37% 0 in 306 W/m2
17:54 61.7 °F 35.8 °F 30.2 in East 2 mph 4 mph 38% 0 in 299 W/m2
17:59 61.5 °F 35.6 °F 30.2 in East 0.9 mph 5 mph 38% 0 in 285 W/m2
18:04 61.5 °F 35.1 °F 30.1 in ENE 4.9 mph 7 mph 37% 0 in 272 W/m2
18:09 61.5 °F 35.6 °F 30.1 in ENE 4 mph 8 mph 38% 0 in 260 W/m2
18:14 61.3 °F 36.1 °F 30.1 in East 2.9 mph 4 mph 39% 0 in 246 W/m2
18:19 61.3 °F 36.1 °F 30.1 in East 6.9 mph 7 mph 39% 0 in 230 W/m2
18:24 61.2 °F 35.4 °F 30.1 in ENE 2 mph 4 mph 38% 0 in 216 W/m2
18:29 61 °F 35.8 °F 30.1 in ENE 0.9 mph 2 mph 39% 0 in 200 W/m2
18:34 61.2 °F 36 °F 30.1 in ESE 2 mph 3 mph 39% 0 in 186 W/m2
18:39 61.3 °F 36.1 °F 30.1 in SE 2.9 mph 4 mph 39% 0 in 172 W/m2
18:44 61.3 °F 36.1 °F 30.1 in ENE 2.9 mph 5 mph 39% 0 in 155 W/m2
18:49 61.2 °F 36 °F 30.1 in ESE 0.9 mph 4 mph 39% 0 in 141 W/m2
18:54 61.2 °F 36 °F 30.2 in ESE 6 mph 6 mph 39% 0 in 127 W/m2
18:59 60.8 °F 36.3 °F 30.2 in East 2 mph 2 mph 40% 0 in 111 W/m2
19:04 60.6 °F 35.6 °F 30.1 in SE 2 mph 4 mph 39% 0 in 97 W/m2
19:09 60.4 °F 36 °F 30.2 in ESE 0.9 mph 2 mph 40% 0 in 83 W/m2
19:14 60.3 °F 35.8 °F 30.2 in SE 0.9 mph 3 mph 40% 0 in 72 W/m2
19:19 60.3 °F 37 °F 30.2 in Calm   2 mph 42% 0 in 62 W/m2
19:24 60.1 °F 36.3 °F 30.2 in East 2.9 mph 3 mph 41% 0 in 51 W/m2
19:29 59.5 °F 34.5 °F 30.2 in ESE 0.9 mph 7 mph 39% 0 in 25 W/m2
19:34 59.2 °F 34.9 °F 30.2 in ESE 0.9 mph 4 mph 40% 0 in 21 W/m2
19:39 58.3 °F 37 °F 30.2 in Calm   7 mph 45% 0 in 18 W/m2
19:44 57.4 °F 36.7 °F 30.2 in Calm     46% 0 in 16 W/m2
19:49 56.7 °F 36.7 °F 30.2 in Calm     47% 0 in 14 W/m2
19:54 55.8 °F 36.9 °F 30.2 in Calm     49% 0 in 12 W/m2
19:59 55 °F 36.7 °F 30.2 in Calm     50% 0 in 11 W/m2
20:04 54.3 °F 36.5 °F 30.2 in Calm     51% 0 in 9 W/m2
20:09 53.8 °F 37 °F 30.2 in ESE 0.9 mph 2 mph 53% 0 in 7 W/m2
20:14 53.1 °F 36.9 °F 30.2 in ESE 0.9 mph 2 mph 54% 0 in 5 W/m2
20:19 52.5 °F 36.3 °F 30.2 in ESE 0.9 mph 2 mph 54% 0 in 0 W/m2
20:24 52 °F 36.3 °F 30.2 in ESE 0.9 mph 2 mph 55% 0 in 0 W/m2
20:29 51.4 °F 36.3 °F 30.2 in ESE 0.9 mph 2 mph 56% 0 in 0 W/m2
20:34 51.1 °F 36.3 °F 30.2 in ESE 2 mph 2 mph 57% 0 in 0 W/m2
20:39 50.4 °F 36.1 °F 30.2 in ESE 0.9 mph 1 mph 58% 0 in 0 W/m2
20:44 49.8 °F 36.1 °F 30.2 in ESE 0.9 mph 1 mph 59% 0 in 0 W/m2
20:49 49.5 °F 36.1 °F 30.2 in ESE 0.9 mph 1 mph 60% 0 in 0 W/m2
20:54 49.1 °F 35.8 °F 30.2 in ESE 0.9 mph 2 mph 60% 0 in 0 W/m2
20:59 48.7 °F 36 °F 30.2 in Calm   1 mph 61% 0 in 0 W/m2
21:04 48.6 °F 36.1 °F 30.2 in Calm   1 mph 62% 0 in 0 W/m2
21:09 48.2 °F 35.8 °F 30.2 in ESE 0.9 mph 1 mph 62% 0 in 0 W/m2
21:14 48 °F 36 °F 30.2 in ESE 0.9 mph 1 mph 63% 0 in 0 W/m2
21:19 47.7 °F 35.6 °F 30.2 in ESE 0.9 mph 1 mph 63% 0 in 0 W/m2
21:24 47.7 °F 36.1 °F 30.2 in ESE 0.9 mph 2 mph 64% 0 in 0 W/m2
21:29 47.3 °F 35.8 °F 30.2 in Calm   1 mph 64% 0 in 0 W/m2
21:34 47.1 °F 35.6 °F 30.2 in Calm   1 mph 64% 0 in 0 W/m2
21:39 46.9 °F 35.8 °F 30.2 in Calm     65% 0 in 0 W/m2
21:44 46.8 °F 36 °F 30.2 in Calm     66% 0 in 0 W/m2
21:49 46.6 °F 35.8 °F 30.2 in Calm   1 mph 66% 0 in 0 W/m2
21:54 46.4 °F 36 °F 30.2 in ESE 0.9 mph 1 mph 67% 0 in 0 W/m2
21:59 46.2 °F 36 °F 30.2 in ESE 0.9 mph 2 mph 67% 0 in 0 W/m2
22:04 46.2 °F 36 °F 30.2 in Calm     67% 0 in 0 W/m2
22:09 46 °F 35.8 °F 30.2 in Calm     67% 0 in 0 W/m2
22:14 46 °F 36.1 °F 30.2 in Calm     68% 0 in 0 W/m2
22:19 45.9 °F 36 °F 30.2 in Calm     68% 0 in 0 W/m2
22:24 45.9 °F 36 °F 30.2 in Calm     68% 0 in 0 W/m2
22:29 45.7 °F 35.8 °F 30.2 in Calm     68% 0 in 0 W/m2
22:34 45.3 °F 35.8 °F 30.2 in Calm     69% 0 in 0 W/m2
22:39 45.1 °F 35.6 °F 30.2 in Calm     69% 0 in 0 W/m2
22:44 45.1 °F 36 °F 30.2 in Calm     70% 0 in 0 W/m2
22:49 45 °F 35.8 °F 30.2 in Calm     70% 0 in 0 W/m2
22:54 44.8 °F 36 °F 30.2 in ESE 0.9 mph 1 mph 71% 0 in 0 W/m2
22:59 44.4 °F 35.6 °F 30.2 in Calm   1 mph 71% 0 in 0 W/m2
23:04 44.4 °F 35.6 °F 30.2 in ESE 0.9 mph 2 mph 71% 0 in 0 W/m2
23:09 44.2 °F 35.4 °F 30.2 in ESE 0.9 mph 2 mph 71% 0 in 0 W/m2
23:14 44.2 °F 35.8 °F 30.2 in Calm   1 mph 72% 0 in 0 W/m2
23:20 44.1 °F 35.6 °F 30.2 in Calm   2 mph 72% 0 in 0 W/m2
23:25 44.1 °F 35.6 °F 30.2 in ESE 0.9 mph 2 mph 72% 0 in 0 W/m2
23:30 44.1 °F 35.6 °F 30.2 in ESE 0.9 mph 2 mph 72% 0 in 0 W/m2
23:35 44.1 °F 35.6 °F 30.2 in Calm   1 mph 72% 0 in 0 W/m2
23:40 44.2 °F 35.4 °F 30.2 in Calm     71% 0 in 0 W/m2
23:45 44.2 °F 35.4 °F 30.2 in Calm     71% 0 in 0 W/m2
23:50 44.2 °F 35.4 °F 30.2 in Calm   1 mph 71% 0 in 0 W/m2
23:55 44.1 °F 35.2 °F 30.2 in ESE 0.9 mph 1 mph 71% 0 in 0 W/m2
Juneau County Weather
Compliments of Weather Underground - 2 mb